createdAt,value
2019-05-30T00:01:40.075Z,101655.50
2019-05-30T00:04:08.632Z,101655.42
2019-05-30T00:06:36.975Z,101659.20
2019-05-30T00:09:08.662Z,101654.06
2019-05-30T00:11:37.087Z,101657.59
2019-05-30T00:14:05.361Z,101656.39
2019-05-30T00:16:33.829Z,101658.34
2019-05-30T00:19:02.919Z,101657.52
2019-05-30T00:21:31.384Z,101656.08
2019-05-30T00:23:59.985Z,101657.22
2019-05-30T00:26:28.444Z,101653.02
2019-05-30T00:28:56.729Z,101660.67
2019-05-30T00:31:25.036Z,101665.56
2019-05-30T00:33:53.407Z,101668.62
2019-05-30T00:36:21.893Z,101661.54
2019-05-30T00:38:50.371Z,101662.58
2019-05-30T00:41:18.749Z,101666.67
2019-05-30T00:43:47.065Z,101655.82
2019-05-30T00:46:15.346Z,101659.41
2019-05-30T00:48:43.652Z,101656.47
2019-05-30T00:51:11.952Z,101661.11
2019-05-30T00:53:40.473Z,101653.55
2019-05-30T00:56:08.825Z,101651.39
2019-05-30T00:58:37.409Z,101651.69
2019-05-30T01:01:06.998Z,101648.41
2019-05-30T01:03:35.903Z,101649.53
2019-05-30T01:06:05.003Z,101645.75
2019-05-30T01:08:33.378Z,101641.66
2019-05-30T01:11:03.076Z,101641.16
2019-05-30T01:13:31.464Z,101637.13
2019-05-30T01:16:00.976Z,101633.85
2019-05-30T01:18:29.337Z,101636.66
2019-05-30T01:20:57.615Z,101633.09
2019-05-30T01:23:26.022Z,101627.48
2019-05-30T01:25:55.114Z,101626.16
2019-05-30T01:28:23.597Z,101622.13
2019-05-30T01:31:00.289Z,101622.45
2019-05-30T01:33:21.965Z,101616.74
2019-05-30T01:35:50.300Z,101617.45
2019-05-30T01:38:18.573Z,101619.61
2019-05-30T01:40:46.871Z,101619.61
2019-05-30T01:43:15.289Z,101620.41
2019-05-30T01:45:43.609Z,101613.18
2019-05-30T01:48:11.889Z,101610.77
2019-05-30T01:50:40.334Z,101602.33
2019-05-30T01:53:08.853Z,101602.90
2019-05-30T01:55:37.390Z,101602.90
2019-05-30T01:58:07.100Z,101599.66
2019-05-30T02:00:39.820Z,101595.00
2019-05-30T02:03:09.478Z,101593.56
2019-05-30T02:05:38.386Z,101601.75
2019-05-30T02:08:07.265Z,101596.30
2019-05-30T02:10:35.806Z,101589.72
2019-05-30T02:13:05.459Z,101585.30
2019-05-30T02:15:33.958Z,101582.58
2019-05-30T02:18:03.454Z,101578.08
2019-05-30T02:20:31.825Z,101575.17
2019-05-30T02:23:00.122Z,101572.51
2019-05-30T02:25:29.010Z,101573.15
2019-05-30T02:27:57.292Z,101570.74
2019-05-30T02:30:25.583Z,101568.02
2019-05-30T02:32:53.969Z,101565.35
2019-05-30T02:35:23.292Z,101569.70
2019-05-30T02:37:51.565Z,101570.49
2019-05-30T02:40:19.953Z,101568.55
2019-05-30T02:42:48.212Z,101570.23
2019-05-30T02:45:16.556Z,101577.38
2019-05-30T02:47:45.419Z,101575.77
2019-05-30T02:50:14.333Z,101577.88
2019-05-30T02:52:42.842Z,101568.55
2019-05-30T02:55:13.345Z,101569.37
2019-05-30T02:57:41.238Z,101573.54
2019-05-30T03:00:13.917Z,101567.83
2019-05-30T03:02:39.724Z,101566.28
2019-05-30T03:05:10.962Z,101564.20
2019-05-30T03:07:38.019Z,101556.40
2019-05-30T03:10:07.654Z,101553.98
2019-05-30T03:12:36.851Z,101556.53
2019-05-30T03:15:11.640Z,101549.53
2019-05-30T03:17:38.363Z,101550.61
2019-05-30T03:20:14.954Z,101546.73
2019-05-30T03:22:36.888Z,101550.82
2019-05-30T03:25:07.911Z,101543.53
2019-05-30T03:27:36.522Z,101543.53
2019-05-30T03:30:12.957Z,101545.14
2019-05-30T03:33:03.871Z,101548.85
2019-05-30T03:35:15.046Z,101552.94
2019-05-30T03:37:37.135Z,101548.85
2019-05-30T03:40:06.597Z,101546.91
2019-05-30T03:42:34.928Z,101549.96
2019-05-30T03:45:06.265Z,101552.19
2019-05-30T03:47:34.391Z,101552.19
2019-05-30T03:50:04.582Z,101554.53
2019-05-30T03:52:32.733Z,101556.97
2019-05-30T03:55:01.067Z,101563.61
2019-05-30T03:57:44.686Z,101559.45
2019-05-30T04:00:30.914Z,101559.77
2019-05-30T04:03:10.813Z,101558.41
2019-05-30T04:05:50.445Z,101554.31
2019-05-30T04:08:19.675Z,101554.78
2019-05-30T04:10:49.044Z,101557.76
2019-05-30T04:13:26.751Z,101556.65
2019-05-30T04:15:54.986Z,101570.70
2019-05-30T04:18:23.270Z,101570.88
2019-05-30T04:20:51.572Z,101557.88
2019-05-30T04:23:20.023Z,101556.88
2019-05-30T04:25:48.302Z,101562.34
2019-05-30T04:28:18.517Z,101560.27
2019-05-30T04:30:46.694Z,101564.79
2019-05-30T04:33:25.782Z,101562.41
2019-05-30T04:35:45.286Z,101568.30
2019-05-30T04:38:14.665Z,101564.92
2019-05-30T04:40:43.513Z,101569.99
2019-05-30T04:43:13.105Z,101567.34
2019-05-30T04:45:42.537Z,101569.20
2019-05-30T04:48:11.688Z,101557.95
2019-05-30T04:50:40.196Z,101562.77
2019-05-30T04:53:10.166Z,101558.64
2019-05-30T04:55:38.689Z,101567.41
2019-05-30T04:58:06.983Z,101565.97
2019-05-30T05:00:35.431Z,101568.45
2019-05-30T05:03:05.484Z,101565.72
2019-05-30T05:05:33.786Z,101570.53
2019-05-30T05:08:02.108Z,101565.83
2019-05-30T05:10:30.532Z,101569.27
2019-05-30T05:12:58.816Z,101572.26
2019-05-30T05:15:27.088Z,101568.87
2019-05-30T05:17:55.392Z,101577.86
2019-05-30T05:20:23.713Z,101567.36
2019-05-30T05:22:52.088Z,101572.90
2019-05-30T05:25:21.469Z,101579.33
2019-05-30T05:27:49.951Z,101578.14
2019-05-30T05:30:18.358Z,101579.25
2019-05-30T05:32:46.685Z,101583.50
2019-05-30T05:35:16.795Z,101591.59
2019-05-30T05:37:45.249Z,101587.03
2019-05-30T05:40:14.040Z,101591.84
2019-05-30T05:42:42.384Z,101590.23
2019-05-30T05:45:11.773Z,101592.70
2019-05-30T05:47:40.369Z,101601.87
2019-05-30T05:50:08.738Z,101601.66
2019-05-30T05:52:37.045Z,101599.47
2019-05-30T05:55:06.022Z,101599.31
2019-05-30T05:57:34.532Z,101599.53
2019-05-30T06:00:03.084Z,101600.64
2019-05-30T06:02:31.370Z,101601.22
2019-05-30T06:05:00.250Z,101599.34
2019-05-30T06:07:28.671Z,101600.39
2019-05-30T06:09:57.058Z,101604.73
2019-05-30T06:12:25.788Z,101602.83
2019-05-30T06:14:54.060Z,101601.87
2019-05-30T06:17:23.091Z,101599.71
2019-05-30T06:19:51.621Z,101603.09
2019-05-30T06:22:19.963Z,101600.76
2019-05-30T06:24:48.244Z,101598.56
2019-05-30T06:27:17.709Z,101600.11
2019-05-30T06:29:46.217Z,101602.70
2019-05-30T06:32:14.506Z,101601.48
2019-05-30T06:34:42.794Z,101597.23
2019-05-30T06:37:12.154Z,101595.15
2019-05-30T06:39:40.675Z,101594.92
2019-05-30T06:42:08.979Z,101603.55
2019-05-30T06:44:37.671Z,101606.02
2019-05-30T06:47:07.335Z,101597.53
2019-05-30T06:49:35.679Z,101608.85
2019-05-30T06:52:04.106Z,101609.16
2019-05-30T06:54:32.569Z,101613.77
2019-05-30T06:57:00.849Z,101610.88
2019-05-30T06:59:29.806Z,101621.91
2019-05-30T07:01:58.077Z,101630.00
2019-05-30T07:04:27.928Z,101623.58
2019-05-30T07:06:56.834Z,101625.61
2019-05-30T07:09:25.343Z,101625.20
2019-05-30T07:11:53.626Z,101624.62
2019-05-30T07:14:23.049Z,101630.43
2019-05-30T07:16:51.498Z,101621.49
2019-05-30T07:19:19.824Z,101621.16
2019-05-30T07:21:48.132Z,101623.74
2019-05-30T07:24:16.494Z,101618.81
2019-05-30T07:26:44.987Z,101627.19
2019-05-30T07:29:13.277Z,101635.47
2019-05-30T07:31:41.580Z,101639.58
2019-05-30T07:34:10.551Z,101640.40
2019-05-30T07:36:38.924Z,101646.25
2019-05-30T07:39:08.454Z,101643.67
2019-05-30T07:41:37.029Z,101646.41
2019-05-30T07:44:05.498Z,101651.34
2019-05-30T07:46:35.066Z,101642.94
2019-05-30T07:49:03.563Z,101652.77
2019-05-30T07:51:32.705Z,101656.00
2019-05-30T07:54:01.190Z,101651.02
2019-05-30T07:56:29.516Z,101649.31
2019-05-30T07:58:58.587Z,101651.72
2019-05-30T08:01:26.877Z,101650.69
2019-05-30T08:03:55.847Z,101657.60
2019-05-30T08:06:24.280Z,101657.11
2019-05-30T08:08:52.728Z,101664.16
2019-05-30T08:11:21.119Z,101669.38
2019-05-30T08:13:49.523Z,101674.06
2019-05-30T08:16:17.843Z,101667.77
2019-05-30T08:18:46.250Z,101663.38
2019-05-30T08:21:14.664Z,101658.19
2019-05-30T08:23:43.216Z,101659.80
2019-05-30T08:26:11.592Z,101661.55
2019-05-30T08:28:42.557Z,101653.59
2019-05-30T08:31:10.049Z,101658.09
2019-05-30T08:33:39.561Z,101658.83
2019-05-30T08:36:08.150Z,101661.28
2019-05-30T08:38:37.410Z,101657.67
2019-05-30T08:41:05.844Z,101659.83
2019-05-30T08:43:35.470Z,101664.11
2019-05-30T08:46:04.042Z,101667.03
2019-05-30T08:48:32.941Z,101671.44
2019-05-30T08:51:02.590Z,101679.98
2019-05-30T08:53:32.603Z,101679.43
2019-05-30T08:56:01.289Z,101684.08
2019-05-30T08:58:30.420Z,101683.62
2019-05-30T09:00:58.831Z,101691.00
2019-05-30T09:03:27.314Z,101682.00
2019-05-30T09:06:03.378Z,101682.58
2019-05-30T09:08:25.682Z,101684.49
2019-05-30T09:10:54.043Z,101682.25
2019-05-30T09:13:22.369Z,101677.11
2019-05-30T09:15:50.671Z,101684.16
2019-05-30T09:18:19.071Z,101684.98
2019-05-30T09:20:47.546Z,101686.41
2019-05-30T09:23:15.841Z,101684.74
2019-05-30T09:25:46.873Z,101685.13
2019-05-30T09:28:14.284Z,101691.72
2019-05-30T09:30:43.205Z,101689.56
2019-05-30T09:33:11.953Z,101682.00
2019-05-30T09:35:41.386Z,101688.19
2019-05-30T09:38:10.294Z,101690.44
2019-05-30T09:40:39.347Z,101691.06
2019-05-30T09:43:09.065Z,101698.61
2019-05-30T09:45:37.370Z,101707.07
2019-05-30T09:48:05.819Z,101714.95
2019-05-30T09:50:34.914Z,101709.73
2019-05-30T09:53:03.312Z,101721.39
2019-05-30T09:55:32.601Z,101722.51
2019-05-30T09:58:00.934Z,101726.12
2019-05-30T10:00:30.027Z,101721.84
2019-05-30T10:02:58.453Z,101713.21
2019-05-30T10:05:26.971Z,101715.53
2019-05-30T10:07:55.253Z,101727.23
2019-05-30T10:10:23.611Z,101731.16
2019-05-30T10:12:52.679Z,101729.13
2019-05-30T10:15:21.371Z,101721.70
2019-05-30T10:17:52.326Z,101732.83
2019-05-30T10:20:19.893Z,101725.80
2019-05-30T10:22:50.075Z,101728.39
2019-05-30T10:25:18.371Z,101731.27
2019-05-30T10:27:48.387Z,101738.61
2019-05-30T10:30:16.806Z,101734.00
2019-05-30T10:32:46.616Z,101733.37
2019-05-30T10:35:15.177Z,101737.61
2019-05-30T10:37:45.258Z,101735.63
2019-05-30T10:40:13.715Z,101732.36
2019-05-30T10:42:42.472Z,101734.30
2019-05-30T10:45:12.789Z,101734.72
2019-05-30T10:47:41.265Z,101739.95
2019-05-30T10:50:09.782Z,101732.42
2019-05-30T10:52:38.091Z,101739.81
2019-05-30T10:55:08.867Z,101741.83
2019-05-30T10:57:37.182Z,101741.69
2019-05-30T11:00:11.474Z,101735.11
2019-05-30T11:02:40.128Z,101733.46
2019-05-30T11:05:09.038Z,101736.23
2019-05-30T11:08:00.283Z,101744.61
2019-05-30T11:10:22.748Z,101750.72
2019-05-30T11:12:56.417Z,101756.16
2019-05-30T11:15:21.118Z,101752.52
2019-05-30T11:17:51.524Z,101758.56
2019-05-30T11:20:19.566Z,101749.32
2019-05-30T11:22:47.933Z,101750.83
2019-05-30T11:25:16.338Z,101752.47
2019-05-30T11:27:44.630Z,101738.75
2019-05-30T11:30:14.436Z,101731.57
2019-05-30T11:32:43.639Z,101740.17
2019-05-30T11:35:11.919Z,101741.66
2019-05-30T11:37:40.392Z,101745.21
2019-05-30T11:40:08.815Z,101745.32
2019-05-30T11:42:37.095Z,101756.32
2019-05-30T11:45:08.483Z,101755.28
2019-05-30T11:47:36.786Z,101760.11
2019-05-30T11:50:08.326Z,101764.69
2019-05-30T11:52:36.616Z,101764.69
2019-05-30T11:55:08.157Z,101761.59
2019-05-30T11:57:36.497Z,101766.77
2019-05-30T12:00:06.951Z,101758.27
2019-05-30T12:02:35.298Z,101771.78
2019-05-30T12:05:03.600Z,101762.50
2019-05-30T12:07:36.318Z,101771.23
2019-05-30T12:10:02.167Z,101769.39
2019-05-30T12:12:30.501Z,101766.75
2019-05-30T12:14:59.474Z,101755.63
2019-05-30T12:17:27.827Z,101765.62
2019-05-30T12:19:57.529Z,101765.62
2019-05-30T12:22:26.008Z,101765.30
2019-05-30T12:24:54.420Z,101762.17
2019-05-30T12:27:22.724Z,101757.84
2019-05-30T12:29:52.061Z,101769.44
2019-05-30T12:32:20.587Z,101776.84
2019-05-30T12:34:48.875Z,101772.04
2019-05-30T12:37:17.172Z,101767.58
2019-05-30T12:39:45.539Z,101775.13
2019-05-30T12:42:13.907Z,101781.55
2019-05-30T12:44:42.222Z,101788.42
2019-05-30T12:47:10.547Z,101794.59
2019-05-30T12:49:38.961Z,101794.03
2019-05-30T12:52:07.328Z,101789.33
2019-05-30T12:54:35.613Z,101785.78
2019-05-30T12:57:04.029Z,101792.89
2019-05-30T12:59:32.364Z,101789.82
2019-05-30T13:02:01.199Z,101786.47
2019-05-30T13:04:29.686Z,101786.27
2019-05-30T13:06:59.358Z,101790.84
2019-05-30T13:09:27.929Z,101778.53
2019-05-30T13:11:56.438Z,101791.60
2019-05-30T13:14:24.733Z,101791.84
2019-05-30T13:16:53.073Z,101795.38
2019-05-30T13:19:21.381Z,101803.09
2019-05-30T13:21:49.660Z,101802.97
2019-05-30T13:24:18.010Z,101801.35
2019-05-30T13:26:46.382Z,101800.96
2019-05-30T13:29:14.664Z,101800.41
2019-05-30T13:31:43.081Z,101799.92
2019-05-30T13:34:12.446Z,101796.25
2019-05-30T13:39:08.614Z,101804.27
2019-05-30T13:41:36.896Z,101806.33
2019-05-30T13:44:08.001Z,101804.76
2019-05-30T13:46:35.232Z,101802.78
2019-05-30T13:49:04.755Z,101801.14
2019-05-30T13:51:33.224Z,101794.22
2019-05-30T13:54:01.523Z,101798.32
2019-05-30T13:56:30.312Z,101803.11
2019-05-30T13:58:59.660Z,101799.80
2019-05-30T14:01:28.200Z,101799.70
2019-05-30T14:03:56.886Z,101797.30
2019-05-30T14:06:25.168Z,101804.38
2019-05-30T14:08:53.454Z,101794.20
2019-05-30T14:11:21.749Z,101797.20
2019-05-30T14:13:50.026Z,101786.33
2019-05-30T14:16:18.447Z,101784.81
2019-05-30T14:18:46.850Z,101789.58
2019-05-30T14:21:15.205Z,101790.02
2019-05-30T14:23:43.817Z,101788.00
2019-05-30T14:26:12.118Z,101790.17
2019-05-30T14:28:40.442Z,101799.84
2019-05-30T14:31:08.990Z,101795.67
2019-05-30T14:33:37.316Z,101803.34
2019-05-30T14:36:08.310Z,101804.79
2019-05-30T14:38:35.732Z,101806.89
2019-05-30T14:41:04.831Z,101799.86
2019-05-30T14:43:33.310Z,101807.35
2019-05-30T14:46:02.421Z,101807.97
2019-05-30T14:48:30.782Z,101797.39
2019-05-30T14:50:59.164Z,101807.61
2019-05-30T14:53:27.575Z,101797.16
2019-05-30T14:55:56.053Z,101809.04
2019-05-30T14:58:24.334Z,101811.00
2019-05-30T15:00:52.779Z,101810.47
2019-05-30T15:03:21.094Z,101811.00
2019-05-30T15:05:49.435Z,101812.44
2019-05-30T15:08:17.833Z,101807.53
2019-05-30T15:10:46.200Z,101813.96
2019-05-30T15:13:15.726Z,101822.47
2019-05-30T15:15:44.204Z,101814.73
2019-05-30T15:18:13.274Z,101814.73
2019-05-30T15:20:41.629Z,101815.55
2019-05-30T15:23:09.898Z,101818.52
2019-05-30T15:25:39.073Z,101821.02
2019-05-30T15:28:07.964Z,101811.59
2019-05-30T15:30:36.511Z,101808.84
2019-05-30T15:33:06.221Z,101811.23
2019-05-30T15:35:34.694Z,101815.30
2019-05-30T15:38:02.968Z,101819.89
2019-05-30T15:40:31.274Z,101820.78
2019-05-30T15:42:59.629Z,101820.06
2019-05-30T15:45:27.947Z,101819.05
2019-05-30T15:47:56.707Z,101826.31
2019-05-30T15:50:25.108Z,101823.09
2019-05-30T15:52:53.391Z,101821.16
2019-05-30T15:55:23.285Z,101825.48
2019-05-30T15:57:51.716Z,101825.33
2019-05-30T16:00:20.073Z,101824.98
2019-05-30T16:02:48.446Z,101817.13
2019-05-30T16:05:17.033Z,101823.22
2019-05-30T16:07:45.320Z,101828.93
2019-05-30T16:10:15.234Z,101830.13
2019-05-30T16:12:43.530Z,101817.23
2019-05-30T16:15:11.961Z,101822.04
2019-05-30T16:17:40.640Z,101822.50
2019-05-30T16:20:09.869Z,101833.58
2019-05-30T16:22:38.158Z,101829.91
2019-05-30T16:25:06.645Z,101828.09
2019-05-30T16:27:34.910Z,101818.79
2019-05-30T16:30:03.854Z,101828.71
2019-05-30T16:32:32.207Z,101829.36
2019-05-30T16:35:00.517Z,101826.67
2019-05-30T16:37:28.894Z,101825.16
2019-05-30T16:40:06.066Z,101823.98
2019-05-30T16:42:27.328Z,101820.07
2019-05-30T16:44:55.669Z,101826.13
2019-05-30T16:47:24.174Z,101838.00
2019-05-30T16:49:52.455Z,101834.13
2019-05-30T16:52:21.083Z,101827.48
2019-05-30T16:54:49.305Z,101831.52
2019-05-30T16:57:18.565Z,101827.97
2019-05-30T16:59:46.993Z,101826.71
2019-05-30T17:02:16.776Z,101825.45
2019-05-30T17:04:45.261Z,101823.06
2019-05-30T17:07:13.563Z,101827.75
2019-05-30T17:09:41.917Z,101827.88
2019-05-30T17:12:10.224Z,101819.06
2019-05-30T17:14:38.507Z,101818.05
2019-05-30T17:17:06.849Z,101823.69
2019-05-30T17:19:35.192Z,101826.30
2019-05-30T17:22:03.492Z,101825.23
2019-05-30T17:24:31.927Z,101820.61
2019-05-30T17:27:00.373Z,101816.11
2019-05-30T17:29:28.686Z,101813.45
2019-05-30T17:31:56.976Z,101822.73
2019-05-30T17:34:26.063Z,101818.77
2019-05-30T17:36:54.403Z,101819.25
2019-05-30T17:39:22.761Z,101814.81
2019-05-30T17:41:51.196Z,101814.40
2019-05-30T17:44:19.474Z,101820.28
2019-05-30T17:46:47.801Z,101819.87
2019-05-30T17:49:17.428Z,101823.47
2019-05-30T17:51:45.812Z,101819.89
2019-05-30T17:54:14.213Z,101808.50
2019-05-30T17:56:42.494Z,101821.47
2019-05-30T17:59:10.836Z,101813.44
2019-05-30T18:01:39.230Z,101817.94
2019-05-30T18:04:07.492Z,101819.23
2019-05-30T18:06:35.895Z,101815.41
2019-05-30T18:09:06.089Z,101825.54
2019-05-30T18:11:34.584Z,101816.91
2019-05-30T18:14:04.036Z,101818.30
2019-05-30T18:16:33.839Z,101818.88
2019-05-30T18:19:03.566Z,101818.88
2019-05-30T18:21:32.009Z,101822.07
2019-05-30T18:24:00.362Z,101831.48
2019-05-30T18:26:29.723Z,101829.80
2019-05-30T18:28:58.051Z,101836.45
2019-05-30T18:31:26.325Z,101827.28
2019-05-30T18:33:54.610Z,101826.52
2019-05-30T18:36:24.252Z,101828.59
2019-05-30T18:38:52.821Z,101833.17
2019-05-30T18:41:21.163Z,101832.38
2019-05-30T18:43:49.601Z,101830.20
2019-05-30T18:46:17.882Z,101831.00
2019-05-30T18:48:46.192Z,101833.99
2019-05-30T18:51:15.564Z,101831.23
2019-05-30T18:53:44.711Z,101835.14
2019-05-30T18:56:13.040Z,101838.92
2019-05-30T18:58:41.333Z,101843.33
2019-05-30T19:01:09.621Z,101841.61
2019-05-30T19:03:37.929Z,101837.36
2019-05-30T19:06:06.205Z,101841.27
2019-05-30T19:08:34.626Z,101838.30
2019-05-30T19:11:02.915Z,101843.26
2019-05-30T19:13:31.303Z,101839.80
2019-05-30T19:16:04.817Z,101845.30
2019-05-30T19:18:33.634Z,101841.53
2019-05-30T19:21:01.996Z,101845.77
2019-05-30T19:23:30.513Z,101840.62
2019-05-30T19:25:58.865Z,101840.27
2019-05-30T19:28:28.438Z,101850.14
2019-05-30T19:30:56.933Z,101843.96
2019-05-30T19:33:26.610Z,101851.52
2019-05-30T19:35:54.997Z,101856.94
2019-05-30T19:38:23.315Z,101858.66
2019-05-30T19:40:51.624Z,101861.05
2019-05-30T19:43:19.917Z,101861.52
2019-05-30T19:45:48.221Z,101865.52
2019-05-30T19:48:16.570Z,101872.63
2019-05-30T19:50:45.017Z,101873.09
2019-05-30T19:53:13.431Z,101874.81
2019-05-30T19:55:41.768Z,101871.63
2019-05-30T19:58:10.259Z,101879.88
2019-05-30T20:00:57.037Z,101884.22
2019-05-30T20:03:09.453Z,101883.53
2019-05-30T20:05:38.898Z,101886.06
2019-05-30T20:08:07.615Z,101879.75
2019-05-30T20:10:37.184Z,101875.92
2019-05-30T20:13:07.006Z,101869.60
2019-05-30T20:15:35.500Z,101877.62
2019-05-30T20:18:03.810Z,101875.19
2019-05-30T20:20:49.332Z,101884.27
2019-05-30T20:23:03.644Z,101878.28
2019-05-30T20:25:32.610Z,101889.64
2019-05-30T20:28:01.223Z,101886.64
2019-05-30T20:30:29.643Z,101881.94
2019-05-30T20:32:58.003Z,101877.25
2019-05-30T20:35:26.288Z,101875.06
2019-05-30T20:37:54.702Z,101883.31
2019-05-30T20:40:23.557Z,101878.16
2019-05-30T20:42:52.031Z,101878.73
2019-05-30T20:45:20.548Z,101885.38
2019-05-30T20:47:48.833Z,101882.49
2019-05-30T20:50:17.269Z,101889.16
2019-05-30T20:52:45.935Z,101885.48
2019-05-30T20:55:14.234Z,101884.11
2019-05-30T20:57:42.674Z,101881.91
2019-05-30T21:00:11.931Z,101887.76
2019-05-30T21:02:40.888Z,101889.34
2019-05-30T21:05:10.245Z,101893.23
2019-05-30T21:07:39.778Z,101891.06
2019-05-30T21:10:08.508Z,101891.16
2019-05-30T21:12:41.294Z,101899.75
2019-05-30T21:15:07.690Z,101899.27
2019-05-30T21:17:35.990Z,101906.50
2019-05-30T21:20:06.057Z,101906.84
2019-05-30T21:22:34.335Z,101903.05
2019-05-30T21:25:02.623Z,101901.20
2019-05-30T21:27:31.032Z,101898.66
2019-05-30T21:29:59.437Z,101900.81
2019-05-30T21:32:27.966Z,101894.48
2019-05-30T21:34:56.472Z,101896.06
2019-05-30T21:37:25.183Z,101900.00
2019-05-30T21:39:53.598Z,101901.23
2019-05-30T21:42:21.890Z,101904.42
2019-05-30T21:44:52.629Z,101910.59
2019-05-30T21:47:20.397Z,101897.98
2019-05-30T21:49:49.239Z,101900.59
2019-05-30T21:52:17.709Z,101897.94
2019-05-30T21:54:46.298Z,101897.48
2019-05-30T21:57:14.706Z,101889.69
2019-05-30T21:59:44.081Z,101881.88
2019-05-30T22:02:12.625Z,101878.41
2019-05-30T22:04:40.968Z,101881.73
2019-05-30T22:07:09.252Z,101873.69
2019-05-30T22:09:37.668Z,101875.41
2019-05-30T22:12:05.955Z,101870.34
2019-05-30T22:14:34.254Z,101872.39
2019-05-30T22:17:02.668Z,101881.18
2019-05-30T22:19:31.081Z,101879.78
2019-05-30T22:21:59.391Z,101882.38
2019-05-30T22:24:27.679Z,101884.19
2019-05-30T22:26:55.982Z,101879.12
2019-05-30T22:29:24.267Z,101876.69
2019-05-30T22:31:53.532Z,101888.83
2019-05-30T22:34:22.042Z,101894.95
2019-05-30T22:36:50.996Z,101887.83
2019-05-30T22:39:19.402Z,101887.34
2019-05-30T22:41:48.004Z,101889.47
2019-05-30T22:44:16.470Z,101881.58
2019-05-30T22:46:46.113Z,101886.27
2019-05-30T22:49:14.536Z,101889.07
2019-05-30T22:51:42.876Z,101879.80
2019-05-30T22:54:11.176Z,101883.77
2019-05-30T22:56:39.564Z,101889.01
2019-05-30T22:59:07.870Z,101889.59
2019-05-30T23:01:36.288Z,101889.59
2019-05-30T23:04:04.595Z,101879.73
2019-05-30T23:06:32.877Z,101887.30
2019-05-30T23:09:01.284Z,101883.19
2019-05-30T23:11:29.730Z,101886.17
2019-05-30T23:13:58.041Z,101883.09
2019-05-30T23:16:26.324Z,101881.39
2019-05-30T23:18:54.798Z,101880.53
2019-05-30T23:21:23.233Z,101881.48
2019-05-30T23:23:51.878Z,101881.14
2019-05-30T23:26:20.656Z,101884.47
2019-05-30T23:28:49.696Z,101883.09
2019-05-30T23:31:18.541Z,101887.42
2019-05-30T23:33:48.108Z,101888.70
2019-05-30T23:36:17.191Z,101884.05
2019-05-30T23:38:45.595Z,101896.94
2019-05-30T23:41:14.037Z,101887.48
2019-05-30T23:43:55.165Z,101887.91
2019-05-30T23:46:12.360Z,101891.79
2019-05-30T23:48:40.677Z,101887.42
2019-05-30T23:51:09.100Z,101890.99
2019-05-30T23:53:37.404Z,101896.00
2019-05-30T23:56:05.713Z,101886.97
2019-05-30T23:58:34.057Z,101890.30
